Sacramento, California
Traffic Map
Current Weather Conditions
Sacramento, California
Broken Clouds
Broken Clouds

Feels Like: 2°
Wind Chill: Ceiling: 8500
Heat Index: Visibility: 10mi
Dew Point: Wind: 5mph
Humidity: 93% Direction: 120° (ESE)
Pressure: 30.19in Gusts: 0mph
Raw Report DataKSAC 251053Z AUTO 12004KT 10SM FEW070 BKN085 04/03 A3019 RMK AO2 SLP223 T00390028
Traffic Incident Summary
Active as of:
Severity:
Category:
InformationThere was an issue retrieving the traffic information for this location. Please try a different location or try again shortly.
Advertisements
Track Severe Weather on mobile